sensor_id;sensor_type;location;lat;lon;timestamp;temperature;humidity
12386;DHT22;6257;57.634;18.310;2023-06-10T00:02:08;8.60;99.90
12386;DHT22;6257;57.634;18.310;2023-06-10T00:04:36;8.50;99.90
12386;DHT22;6257;57.634;18.310;2023-06-10T00:07:04;8.50;99.90
12386;DHT22;6257;57.634;18.310;2023-06-10T00:09:34;8.50;99.90
12386;DHT22;6257;57.634;18.310;2023-06-10T00:12:03;8.40;99.90
12386;DHT22;6257;57.634;18.310;2023-06-10T00:14:30;8.40;99.90
12386;DHT22;6257;57.634;18.310;2023-06-10T00:16:59;8.40;99.90
12386;DHT22;6257;57.634;18.310;2023-06-10T00:19:26;8.30;99.90
12386;DHT22;6257;57.634;18.310;2023-06-10T00:21:55;8.30;99.90
12386;DHT22;6257;57.634;18.310;2023-06-10T00:24:22;8.20;99.90
12386;DHT22;6257;57.634;18.310;2023-06-10T00:26:50;8.20;99.90
12386;DHT22;6257;57.634;18.310;2023-06-10T00:29:17;8.20;99.90
12386;DHT22;6257;57.634;18.310;2023-06-10T00:31:45;8.20;99.90
12386;DHT22;6257;57.634;18.310;2023-06-10T00:36:41;8.10;99.90
12386;DHT22;6257;57.634;18.310;2023-06-10T00:39:08;8.10;99.90
12386;DHT22;6257;57.634;18.310;2023-06-10T00:41:36;8.00;99.90
12386;DHT22;6257;57.634;18.310;2023-06-10T00:46:30;8.00;99.90
12386;DHT22;6257;57.634;18.310;2023-06-10T00:48:59;8.00;99.90
12386;DHT22;6257;57.634;18.310;2023-06-10T00:51:28;7.90;99.90
12386;DHT22;6257;57.634;18.310;2023-06-10T00:53:56;7.90;99.90
12386;DHT22;6257;57.634;18.310;2023-06-10T00:56:23;7.90;99.90
12386;DHT22;6257;57.634;18.310;2023-06-10T00:58:51;7.90;99.90
12386;DHT22;6257;57.634;18.310;2023-06-10T01:01:19;7.90;99.90
12386;DHT22;6257;57.634;18.310;2023-06-10T01:03:46;7.90;99.90
12386;DHT22;6257;57.634;18.310;2023-06-10T01:06:29;7.90;99.90
12386;DHT22;6257;57.634;18.310;2023-06-10T01:09:05;7.90;99.90
12386;DHT22;6257;57.634;18.310;2023-06-10T01:11:38;7.90;99.90
12386;DHT22;6257;57.634;18.310;2023-06-10T01:14:08;7.80;99.90
12386;DHT22;6257;57.634;18.310;2023-06-10T01:16:36;7.90;99.90
12386;DHT22;6257;57.634;18.310;2023-06-10T01:19:06;7.90;99.90
12386;DHT22;6257;57.634;18.310;2023-06-10T01:21:37;7.90;99.90
12386;DHT22;6257;57.634;18.310;2023-06-10T01:24:05;7.90;99.90
12386;DHT22;6257;57.634;18.310;2023-06-10T01:26:34;7.90;99.90
12386;DHT22;6257;57.634;18.310;2023-06-10T01:29:09;8.00;99.90
12386;DHT22;6257;57.634;18.310;2023-06-10T01:31:42;8.00;99.90
12386;DHT22;6257;57.634;18.310;2023-06-10T01:34:13;8.00;99.90
12386;DHT22;6257;57.634;18.310;2023-06-10T01:36:44;8.00;99.90
12386;DHT22;6257;57.634;18.310;2023-06-10T01:39:14;8.00;99.90
12386;DHT22;6257;57.634;18.310;2023-06-10T01:41:42;8.00;99.90
12386;DHT22;6257;57.634;18.310;2023-06-10T01:44:10;8.00;99.90
12386;DHT22;6257;57.634;18.310;2023-06-10T01:46:37;8.00;99.90
12386;DHT22;6257;57.634;18.310;2023-06-10T01:49:04;8.00;99.90
12386;DHT22;6257;57.634;18.310;2023-06-10T01:51:32;8.00;99.90
12386;DHT22;6257;57.634;18.310;2023-06-10T01:54:01;8.00;99.90
12386;DHT22;6257;57.634;18.310;2023-06-10T01:56:28;8.00;99.90
12386;DHT22;6257;57.634;18.310;2023-06-10T01:58:55;8.00;99.90
12386;DHT22;6257;57.634;18.310;2023-06-10T02:01:24;8.00;99.90
12386;DHT22;6257;57.634;18.310;2023-06-10T02:03:52;8.10;99.90
12386;DHT22;6257;57.634;18.310;2023-06-10T02:06:19;8.10;99.90
12386;DHT22;6257;57.634;18.310;2023-06-10T02:08:46;8.10;99.90
12386;DHT22;6257;57.634;18.310;2023-06-10T02:11:14;8.10;99.90
12386;DHT22;6257;57.634;18.310;2023-06-10T02:13:41;8.10;99.90
12386;DHT22;6257;57.634;18.310;2023-06-10T02:16:08;8.10;99.90
12386;DHT22;6257;57.634;18.310;2023-06-10T02:18:38;8.10;99.90
12386;DHT22;6257;57.634;18.310;2023-06-10T02:21:06;8.20;99.90
12386;DHT22;6257;57.634;18.310;2023-06-10T02:23:33;8.20;99.90
12386;DHT22;6257;57.634;18.310;2023-06-10T02:26:00;8.20;99.90
12386;DHT22;6257;57.634;18.310;2023-06-10T02:28:29;8.20;99.90
12386;DHT22;6257;57.634;18.310;2023-06-10T02:30:56;8.20;99.90
12386;DHT22;6257;57.634;18.310;2023-06-10T02:33:24;8.20;99.90
12386;DHT22;6257;57.634;18.310;2023-06-10T02:35:52;8.20;99.90
12386;DHT22;6257;57.634;18.310;2023-06-10T02:40:47;8.30;99.90
12386;DHT22;6257;57.634;18.310;2023-06-10T02:43:14;8.30;99.90
12386;DHT22;6257;57.634;18.310;2023-06-10T02:48:10;8.30;99.90
12386;DHT22;6257;57.634;18.310;2023-06-10T02:53:06;8.40;99.90
12386;DHT22;6257;57.634;18.310;2023-06-10T02:58:01;8.50;99.90
12386;DHT22;6257;57.634;18.310;2023-06-10T03:00:28;8.50;99.90
12386;DHT22;6257;57.634;18.310;2023-06-10T03:05:28;8.60;99.90
12386;DHT22;6257;57.634;18.310;2023-06-10T03:07:55;8.60;99.90
12386;DHT22;6257;57.634;18.310;2023-06-10T03:10:22;8.70;99.90
12386;DHT22;6257;57.634;18.310;2023-06-10T03:12:49;8.80;99.90
12386;DHT22;6257;57.634;18.310;2023-06-10T03:15:16;8.80;99.90
12386;DHT22;6257;57.634;18.310;2023-06-10T03:17:43;8.90;99.90
12386;DHT22;6257;57.634;18.310;2023-06-10T03:20:13;9.00;99.90
12386;DHT22;6257;57.634;18.310;2023-06-10T03:22:41;9.10;99.90
12386;DHT22;6257;57.634;18.310;2023-06-10T03:25:08;9.20;99.90
12386;DHT22;6257;57.634;18.310;2023-06-10T03:27:39;9.20;99.90
12386;DHT22;6257;57.634;18.310;2023-06-10T03:30:07;9.40;99.90
12386;DHT22;6257;57.634;18.310;2023-06-10T03:32:35;9.50;99.90
12386;DHT22;6257;57.634;18.310;2023-06-10T03:35:02;9.60;99.90
12386;DHT22;6257;57.634;18.310;2023-06-10T03:37:31;9.70;99.90
12386;DHT22;6257;57.634;18.310;2023-06-10T03:39:58;9.90;99.90
12386;DHT22;6257;57.634;18.310;2023-06-10T03:42:25;10.10;99.90
12386;DHT22;6257;57.634;18.310;2023-06-10T03:44:52;10.20;99.90
12386;DHT22;6257;57.634;18.310;2023-06-10T03:47:19;10.40;99.90
12386;DHT22;6257;57.634;18.310;2023-06-10T03:49:46;10.40;99.90
12386;DHT22;6257;57.634;18.310;2023-06-10T03:52:13;10.40;99.90
12386;DHT22;6257;57.634;18.310;2023-06-10T03:54:42;10.50;99.90
12386;DHT22;6257;57.634;18.310;2023-06-10T03:57:09;10.50;99.90
12386;DHT22;6257;57.634;18.310;2023-06-10T03:59:36;10.50;99.90
12386;DHT22;6257;57.634;18.310;2023-06-10T04:02:04;10.50;99.90
12386;DHT22;6257;57.634;18.310;2023-06-10T04:04:32;10.50;99.90
12386;DHT22;6257;57.634;18.310;2023-06-10T04:06:59;10.50;99.90
12386;DHT22;6257;57.634;18.310;2023-06-10T04:09:26;10.60;99.90
12386;DHT22;6257;57.634;18.310;2023-06-10T04:11:54;10.60;99.90
12386;DHT22;6257;57.634;18.310;2023-06-10T04:14:22;10.60;99.90
12386;DHT22;6257;57.634;18.310;2023-06-10T04:16:49;10.70;99.90
12386;DHT22;6257;57.634;18.310;2023-06-10T04:19:17;10.80;99.90
12386;DHT22;6257;57.634;18.310;2023-06-10T04:21:44;10.80;99.90
12386;DHT22;6257;57.634;18.310;2023-06-10T04:24:11;10.90;99.90
12386;DHT22;6257;57.634;18.310;2023-06-10T04:26:38;11.00;99.90
12386;DHT22;6257;57.634;18.310;2023-06-10T04:31:34;11.10;99.90
12386;DHT22;6257;57.634;18.310;2023-06-10T04:34:04;11.10;99.90
12386;DHT22;6257;57.634;18.310;2023-06-10T04:36:31;11.20;99.90
12386;DHT22;6257;57.634;18.310;2023-06-10T04:38:58;11.20;99.90
12386;DHT22;6257;57.634;18.310;2023-06-10T04:41:25;11.30;99.90
12386;DHT22;6257;57.634;18.310;2023-06-10T04:43:52;11.50;99.90
12386;DHT22;6257;57.634;18.310;2023-06-10T04:46:21;11.60;99.90
12386;DHT22;6257;57.634;18.310;2023-06-10T04:48:48;11.70;99.90
12386;DHT22;6257;57.634;18.310;2023-06-10T04:51:15;11.80;99.90
12386;DHT22;6257;57.634;18.310;2023-06-10T04:53:43;11.90;99.90
12386;DHT22;6257;57.634;18.310;2023-06-10T04:56:10;12.00;99.90
12386;DHT22;6257;57.634;18.310;2023-06-10T04:58:37;12.10;99.90
12386;DHT22;6257;57.634;18.310;2023-06-10T05:01:04;12.10;99.90
12386;DHT22;6257;57.634;18.310;2023-06-10T05:06:00;12.30;99.90
12386;DHT22;6257;57.634;18.310;2023-06-10T05:08:27;12.40;99.90
12386;DHT22;6257;57.634;18.310;2023-06-10T05:10:54;12.50;99.90
12386;DHT22;6257;57.634;18.310;2023-06-10T05:13:22;12.60;99.90
12386;DHT22;6257;57.634;18.310;2023-06-10T05:15:49;12.70;99.90
12386;DHT22;6257;57.634;18.310;2023-06-10T05:18:16;12.90;99.90
12386;DHT22;6257;57.634;18.310;2023-06-10T05:23:12;13.10;99.90
12386;DHT22;6257;57.634;18.310;2023-06-10T05:25:39;13.20;99.90
12386;DHT22;6257;57.634;18.310;2023-06-10T05:28:07;13.40;99.90
12386;DHT22;6257;57.634;18.310;2023-06-10T05:30:36;13.40;99.90
12386;DHT22;6257;57.634;18.310;2023-06-10T05:33:03;13.50;99.90
12386;DHT22;6257;57.634;18.310;2023-06-10T05:35:30;13.60;99.90
12386;DHT22;6257;57.634;18.310;2023-06-10T05:40:26;13.90;99.90
12386;DHT22;6257;57.634;18.310;2023-06-10T05:42:53;13.90;99.90
12386;DHT22;6257;57.634;18.310;2023-06-10T05:45:20;14.10;99.90
12386;DHT22;6257;57.634;18.310;2023-06-10T05:47:47;14.10;99.90
12386;DHT22;6257;57.634;18.310;2023-06-10T05:50:14;14.30;99.90
12386;DHT22;6257;57.634;18.310;2023-06-10T05:52:41;14.30;99.90
12386;DHT22;6257;57.634;18.310;2023-06-10T05:55:11;14.40;99.90
12386;DHT22;6257;57.634;18.310;2023-06-10T05:57:38;14.40;99.90
12386;DHT22;6257;57.634;18.310;2023-06-10T06:00:06;14.50;99.90
12386;DHT22;6257;57.634;18.310;2023-06-10T06:02:33;14.60;99.90
12386;DHT22;6257;57.634;18.310;2023-06-10T06:05:00;14.60;99.90
12386;DHT22;6257;57.634;18.310;2023-06-10T06:07:27;14.60;99.90
12386;DHT22;6257;57.634;18.310;2023-06-10T06:09:55;14.60;99.90
12386;DHT22;6257;57.634;18.310;2023-06-10T06:14:50;14.80;99.90
12386;DHT22;6257;57.634;18.310;2023-06-10T06:17:17;14.90;99.90
12386;DHT22;6257;57.634;18.310;2023-06-10T06:19:44;14.90;99.90
12386;DHT22;6257;57.634;18.310;2023-06-10T06:22:13;15.00;99.90
12386;DHT22;6257;57.634;18.310;2023-06-10T06:24:40;15.10;99.90
12386;DHT22;6257;57.634;18.310;2023-06-10T06:27:07;15.00;99.40
12386;DHT22;6257;57.634;18.310;2023-06-10T06:29:36;15.00;99.90
12386;DHT22;6257;57.634;18.310;2023-06-10T06:32:03;15.10;99.90
12386;DHT22;6257;57.634;18.310;2023-06-10T06:34:30;15.20;99.30
12386;DHT22;6257;57.634;18.310;2023-06-10T06:36:59;15.30;98.80
12386;DHT22;6257;57.634;18.310;2023-06-10T06:39:26;15.30;97.70
12386;DHT22;6257;57.634;18.310;2023-06-10T06:41:53;15.40;97.90
12386;DHT22;6257;57.634;18.310;2023-06-10T06:44:20;15.50;96.90
12386;DHT22;6257;57.634;18.310;2023-06-10T06:49:16;15.60;96.80
12386;DHT22;6257;57.634;18.310;2023-06-10T06:51:43;15.70;95.70
12386;DHT22;6257;57.634;18.310;2023-06-10T06:54:10;15.80;95.00
12386;DHT22;6257;57.634;18.310;2023-06-10T06:56:37;15.90;94.70
12386;DHT22;6257;57.634;18.310;2023-06-10T06:59:05;16.00;94.10
12386;DHT22;6257;57.634;18.310;2023-06-10T07:01:33;16.10;94.50
12386;DHT22;6257;57.634;18.310;2023-06-10T07:08:57;14.00;93.10
12386;DHT22;6257;57.634;18.310;2023-06-10T07:11:24;16.80;93.50
12386;DHT22;6257;57.634;18.310;2023-06-10T07:13:51;16.90;92.70
12386;DHT22;6257;57.634;18.310;2023-06-10T07:16:18;17.10;93.70
12386;DHT22;6257;57.634;18.310;2023-06-10T07:18:47;17.30;94.60
12386;DHT22;6257;57.634;18.310;2023-06-10T07:21:15;17.20;93.00
12386;DHT22;6257;57.634;18.310;2023-06-10T07:23:43;17.10;91.40
12386;DHT22;6257;57.634;18.310;2023-06-10T07:26:10;17.10;91.90
12386;DHT22;6257;57.634;18.310;2023-06-10T07:28:39;17.40;91.20
12386;DHT22;6257;57.634;18.310;2023-06-10T07:31:07;17.40;91.10
12386;DHT22;6257;57.634;18.310;2023-06-10T07:33:34;17.60;91.10
12386;DHT22;6257;57.634;18.310;2023-06-10T07:36:02;17.80;89.60
12386;DHT22;6257;57.634;18.310;2023-06-10T07:40:58;18.00;90.30
12386;DHT22;6257;57.634;18.310;2023-06-10T07:43:25;18.20;88.30
12386;DHT22;6257;57.634;18.310;2023-06-10T07:45:53;18.30;84.80
12386;DHT22;6257;57.634;18.310;2023-06-10T07:48:20;18.30;87.10
12386;DHT22;6257;57.634;18.310;2023-06-10T07:50:47;18.50;87.20
12386;DHT22;6257;57.634;18.310;2023-06-10T07:53:14;18.70;85.10
12386;DHT22;6257;57.634;18.310;2023-06-10T07:55:42;19.10;85.40
12386;DHT22;6257;57.634;18.310;2023-06-10T07:58:10;19.60;84.70
12386;DHT22;6257;57.634;18.310;2023-06-10T08:00:37;20.10;82.90
12386;DHT22;6257;57.634;18.310;2023-06-10T08:03:04;20.40;86.10
12386;DHT22;6257;57.634;18.310;2023-06-10T08:05:31;20.50;80.60
12386;DHT22;6257;57.634;18.310;2023-06-10T08:07:58;20.70;79.80
12386;DHT22;6257;57.634;18.310;2023-06-10T08:10:25;20.80;75.30
12386;DHT22;6257;57.634;18.310;2023-06-10T08:12:53;20.80;77.50
12386;DHT22;6257;57.634;18.310;2023-06-10T08:15:21;20.90;74.60
12386;DHT22;6257;57.634;18.310;2023-06-10T08:17:48;20.60;73.70
12386;DHT22;6257;57.634;18.310;2023-06-10T08:20:15;20.30;78.40
12386;DHT22;6257;57.634;18.310;2023-06-10T08:22:42;20.20;82.30
12386;DHT22;6257;57.634;18.310;2023-06-10T08:25:09;19.90;76.90
12386;DHT22;6257;57.634;18.310;2023-06-10T08:27:37;19.60;79.80
12386;DHT22;6257;57.634;18.310;2023-06-10T08:32:33;19.60;80.30
12386;DHT22;6257;57.634;18.310;2023-06-10T08:35:00;19.90;81.20
12386;DHT22;6257;57.634;18.310;2023-06-10T08:37:27;20.10;85.40
12386;DHT22;6257;57.634;18.310;2023-06-10T08:39:55;20.30;77.70
12386;DHT22;6257;57.634;18.310;2023-06-10T08:42:23;20.30;77.20
12386;DHT22;6257;57.634;18.310;2023-06-10T08:44:53;20.30;77.90
12386;DHT22;6257;57.634;18.310;2023-06-10T08:47:24;20.40;78.50
12386;DHT22;6257;57.634;18.310;2023-06-10T08:49:53;20.30;75.50
12386;DHT22;6257;57.634;18.310;2023-06-10T08:52:23;20.20;77.60
12386;DHT22;6257;57.634;18.310;2023-06-10T08:54:56;20.20;80.00
12386;DHT22;6257;57.634;18.310;2023-06-10T08:57:25;20.00;79.00
12386;DHT22;6257;57.634;18.310;2023-06-10T08:59:53;19.80;78.90
12386;DHT22;6257;57.634;18.310;2023-06-10T09:02:20;19.80;78.40
12386;DHT22;6257;57.634;18.310;2023-06-10T09:04:49;19.40;70.20
12386;DHT22;6257;57.634;18.310;2023-06-10T09:07:17;18.90;68.30
12386;DHT22;6257;57.634;18.310;2023-06-10T09:09:44;18.60;72.00
12386;DHT22;6257;57.634;18.310;2023-06-10T09:12:13;18.50;77.40
12386;DHT22;6257;57.634;18.310;2023-06-10T09:14:41;18.30;72.00
12386;DHT22;6257;57.634;18.310;2023-06-10T09:17:09;18.20;75.90
12386;DHT22;6257;57.634;18.310;2023-06-10T09:19:37;18.20;76.30
12386;DHT22;6257;57.634;18.310;2023-06-10T09:22:06;18.20;75.10
12386;DHT22;6257;57.634;18.310;2023-06-10T09:24:33;18.20;80.20
12386;DHT22;6257;57.634;18.310;2023-06-10T09:27:04;18.30;79.50
12386;DHT22;6257;57.634;18.310;2023-06-10T09:29:32;18.40;77.30
12386;DHT22;6257;57.634;18.310;2023-06-10T09:32:01;18.50;81.60
12386;DHT22;6257;57.634;18.310;2023-06-10T09:34:28;18.30;73.50
12386;DHT22;6257;57.634;18.310;2023-06-10T09:36:56;18.40;78.50
12386;DHT22;6257;57.634;18.310;2023-06-10T09:39:24;18.40;74.50
12386;DHT22;6257;57.634;18.310;2023-06-10T09:41:51;18.20;76.30
12386;DHT22;6257;57.634;18.310;2023-06-10T09:44:20;18.10;73.30
12386;DHT22;6257;57.634;18.310;2023-06-10T09:46:49;18.00;77.90
12386;DHT22;6257;57.634;18.310;2023-06-10T09:49:17;18.20;80.60
12386;DHT22;6257;57.634;18.310;2023-06-10T09:51:49;18.20;80.50
12386;DHT22;6257;57.634;18.310;2023-06-10T09:54:17;18.20;77.40
12386;DHT22;6257;57.634;18.310;2023-06-10T09:56:49;18.10;77.70
12386;DHT22;6257;57.634;18.310;2023-06-10T09:59:16;18.10;77.40
12386;DHT22;6257;57.634;18.310;2023-06-10T10:01:55;18.10;76.40
12386;DHT22;6257;57.634;18.310;2023-06-10T10:04:23;18.00;77.70
12386;DHT22;6257;57.634;18.310;2023-06-10T10:06:51;18.10;77.00
12386;DHT22;6257;57.634;18.310;2023-06-10T10:09:18;18.10;75.50
12386;DHT22;6257;57.634;18.310;2023-06-10T10:11:47;18.10;75.20
12386;DHT22;6257;57.634;18.310;2023-06-10T10:14:16;18.10;77.40
12386;DHT22;6257;57.634;18.310;2023-06-10T10:16:46;17.90;77.40
12386;DHT22;6257;57.634;18.310;2023-06-10T10:19:18;17.80;77.30
12386;DHT22;6257;57.634;18.310;2023-06-10T10:21:52;17.80;76.20
12386;DHT22;6257;57.634;18.310;2023-06-10T10:24:21;17.80;78.10
12386;DHT22;6257;57.634;18.310;2023-06-10T10:26:53;18.00;76.80
12386;DHT22;6257;57.634;18.310;2023-06-10T10:29:24;18.00;77.50
12386;DHT22;6257;57.634;18.310;2023-06-10T10:31:54;18.00;76.50
12386;DHT22;6257;57.634;18.310;2023-06-10T10:34:27;18.10;77.70
12386;DHT22;6257;57.634;18.310;2023-06-10T10:36:57;18.20;80.00
12386;DHT22;6257;57.634;18.310;2023-06-10T10:39:25;18.30;77.50
12386;DHT22;6257;57.634;18.310;2023-06-10T10:41:56;18.40;75.20
12386;DHT22;6257;57.634;18.310;2023-06-10T10:44:24;18.30;74.50
12386;DHT22;6257;57.634;18.310;2023-06-10T10:46:51;18.00;72.20
12386;DHT22;6257;57.634;18.310;2023-06-10T10:49:20;17.80;72.40
12386;DHT22;6257;57.634;18.310;2023-06-10T10:51:56;17.80;73.70
12386;DHT22;6257;57.634;18.310;2023-06-10T10:54:29;17.80;72.10
12386;DHT22;6257;57.634;18.310;2023-06-10T10:57:15;17.70;74.10
12386;DHT22;6257;57.634;18.310;2023-06-10T10:59:55;17.50;73.90
12386;DHT22;6257;57.634;18.310;2023-06-10T11:02:36;17.60;73.30
12386;DHT22;6257;57.634;18.310;2023-06-10T11:05:05;17.50;72.90
12386;DHT22;6257;57.634;18.310;2023-06-10T11:07:33;17.60;73.60
12386;DHT22;6257;57.634;18.310;2023-06-10T11:10:03;17.50;73.10
12386;DHT22;6257;57.634;18.310;2023-06-10T11:12:50;17.50;71.80
12386;DHT22;6257;57.634;18.310;2023-06-10T11:15:23;17.60;73.10
12386;DHT22;6257;57.634;18.310;2023-06-10T11:18:11;17.60;71.80
12386;DHT22;6257;57.634;18.310;2023-06-10T11:20:52;17.70;72.00
12386;DHT22;6257;57.634;18.310;2023-06-10T11:23:42;17.80;72.70
12386;DHT22;6257;57.634;18.310;2023-06-10T11:26:11;17.80;75.50
12386;DHT22;6257;57.634;18.310;2023-06-10T11:28:40;17.90;72.70
12386;DHT22;6257;57.634;18.310;2023-06-10T11:31:10;17.80;72.00
12386;DHT22;6257;57.634;18.310;2023-06-10T11:33:47;17.70;72.50
12386;DHT22;6257;57.634;18.310;2023-06-10T11:36:14;17.70;71.60
12386;DHT22;6257;57.634;18.310;2023-06-10T11:38:42;17.70;74.30
12386;DHT22;6257;57.634;18.310;2023-06-10T11:41:11;17.70;72.30
12386;DHT22;6257;57.634;18.310;2023-06-10T11:43:42;17.70;74.50
12386;DHT22;6257;57.634;18.310;2023-06-10T11:46:09;17.70;72.40
12386;DHT22;6257;57.634;18.310;2023-06-10T11:48:36;17.70;72.50
12386;DHT22;6257;57.634;18.310;2023-06-10T11:51:06;17.80;75.20
12386;DHT22;6257;57.634;18.310;2023-06-10T11:53:33;17.80;76.00
12386;DHT22;6257;57.634;18.310;2023-06-10T11:56:00;17.80;72.90
12386;DHT22;6257;57.634;18.310;2023-06-10T11:58:27;17.80;72.20
12386;DHT22;6257;57.634;18.310;2023-06-10T12:03:24;17.80;74.70
12386;DHT22;6257;57.634;18.310;2023-06-10T12:05:56;17.90;72.80
12386;DHT22;6257;57.634;18.310;2023-06-10T12:08:23;17.90;73.60
12386;DHT22;6257;57.634;18.310;2023-06-10T12:10:51;17.90;75.10
12386;DHT22;6257;57.634;18.310;2023-06-10T12:13:18;17.90;74.30
12386;DHT22;6257;57.634;18.310;2023-06-10T12:15:45;17.90;73.50
12386;DHT22;6257;57.634;18.310;2023-06-10T12:18:18;17.90;74.90
12386;DHT22;6257;57.634;18.310;2023-06-10T12:20:46;17.70;70.30
12386;DHT22;6257;57.634;18.310;2023-06-10T12:23:15;17.50;70.40
12386;DHT22;6257;57.634;18.310;2023-06-10T12:25:50;17.40;71.30
12386;DHT22;6257;57.634;18.310;2023-06-10T12:28:21;17.50;72.70
12386;DHT22;6257;57.634;18.310;2023-06-10T12:30:48;17.50;72.60
12386;DHT22;6257;57.634;18.310;2023-06-10T12:33:20;17.60;74.30
12386;DHT22;6257;57.634;18.310;2023-06-10T12:35:48;17.50;72.20
12386;DHT22;6257;57.634;18.310;2023-06-10T12:38:21;17.40;72.70
12386;DHT22;6257;57.634;18.310;2023-06-10T12:40:50;18.80;74.40
12386;DHT22;6257;57.634;18.310;2023-06-10T12:43:19;17.20;72.00
12386;DHT22;6257;57.634;18.310;2023-06-10T12:45:47;17.10;72.20
12386;DHT22;6257;57.634;18.310;2023-06-10T12:48:20;17.20;71.20
12386;DHT22;6257;57.634;18.310;2023-06-10T12:50:51;17.20;71.30
12386;DHT22;6257;57.634;18.310;2023-06-10T12:53:19;17.30;74.30
12386;DHT22;6257;57.634;18.310;2023-06-10T12:55:46;17.50;74.10
12386;DHT22;6257;57.634;18.310;2023-06-10T12:58:13;17.40;70.90
12386;DHT22;6257;57.634;18.310;2023-06-10T13:00:41;17.40;71.10
12386;DHT22;6257;57.634;18.310;2023-06-10T13:03:09;17.30;71.70
12386;DHT22;6257;57.634;18.310;2023-06-10T13:05:38;17.30;71.80
12386;DHT22;6257;57.634;18.310;2023-06-10T13:08:05;17.30;73.40
12386;DHT22;6257;57.634;18.310;2023-06-10T13:10:33;17.30;71.90
12386;DHT22;6257;57.634;18.310;2023-06-10T13:13:00;17.20;72.50
12386;DHT22;6257;57.634;18.310;2023-06-10T13:15:31;17.20;71.90
12386;DHT22;6257;57.634;18.310;2023-06-10T13:18:01;17.30;73.80
12386;DHT22;6257;57.634;18.310;2023-06-10T13:20:29;17.40;70.50
12386;DHT22;6257;57.634;18.310;2023-06-10T13:22:58;17.40;73.90
12386;DHT22;6257;57.634;18.310;2023-06-10T13:25:25;17.50;73.20
12386;DHT22;6257;57.634;18.310;2023-06-10T13:27:52;17.50;72.60
12386;DHT22;6257;57.634;18.310;2023-06-10T13:30:20;17.40;72.20
12386;DHT22;6257;57.634;18.310;2023-06-10T13:32:47;17.30;73.00
12386;DHT22;6257;57.634;18.310;2023-06-10T13:35:14;17.20;73.10
12386;DHT22;6257;57.634;18.310;2023-06-10T13:37:41;17.20;73.30
12386;DHT22;6257;57.634;18.310;2023-06-10T13:40:11;17.30;70.10
12386;DHT22;6257;57.634;18.310;2023-06-10T13:42:38;17.20;72.60
12386;DHT22;6257;57.634;18.310;2023-06-10T13:45:06;17.10;71.40
12386;DHT22;6257;57.634;18.310;2023-06-10T13:47:34;17.20;72.50
12386;DHT22;6257;57.634;18.310;2023-06-10T13:50:02;17.20;72.10
12386;DHT22;6257;57.634;18.310;2023-06-10T13:52:29;17.30;70.80
12386;DHT22;6257;57.634;18.310;2023-06-10T13:54:56;17.20;71.20
12386;DHT22;6257;57.634;18.310;2023-06-10T13:57:24;17.20;71.10
12386;DHT22;6257;57.634;18.310;2023-06-10T13:59:51;17.20;71.60
12386;DHT22;6257;57.634;18.310;2023-06-10T14:02:19;17.20;73.20
12386;DHT22;6257;57.634;18.310;2023-06-10T14:04:46;17.20;73.00
12386;DHT22;6257;57.634;18.310;2023-06-10T14:07:13;17.10;70.50
12386;DHT22;6257;57.634;18.310;2023-06-10T14:09:41;17.00;71.60
12386;DHT22;6257;57.634;18.310;2023-06-10T14:12:08;16.90;73.30
12386;DHT22;6257;57.634;18.310;2023-06-10T14:14:38;16.90;70.40
12386;DHT22;6257;57.634;18.310;2023-06-10T14:17:05;17.80;73.40
12386;DHT22;6257;57.634;18.310;2023-06-10T14:19:33;17.00;73.10
12386;DHT22;6257;57.634;18.310;2023-06-10T14:22:00;17.10;73.10
12386;DHT22;6257;57.634;18.310;2023-06-10T14:24:27;17.10;74.10
12386;DHT22;6257;57.634;18.310;2023-06-10T14:26:54;17.20;74.00
12386;DHT22;6257;57.634;18.310;2023-06-10T14:29:22;17.10;73.70
12386;DHT22;6257;57.634;18.310;2023-06-10T14:31:51;17.10;73.10
12386;DHT22;6257;57.634;18.310;2023-06-10T14:34:18;17.00;74.00
12386;DHT22;6257;57.634;18.310;2023-06-10T14:36:45;16.90;73.70
12386;DHT22;6257;57.634;18.310;2023-06-10T14:39:12;16.90;75.30
12386;DHT22;6257;57.634;18.310;2023-06-10T14:41:39;16.80;75.00
12386;DHT22;6257;57.634;18.310;2023-06-10T14:46:34;16.90;74.30
12386;DHT22;6257;57.634;18.310;2023-06-10T14:51:30;13.90;70.60
12386;DHT22;6257;57.634;18.310;2023-06-10T14:53:57;16.80;75.20
12386;DHT22;6257;57.634;18.310;2023-06-10T14:56:24;16.70;76.20
12386;DHT22;6257;57.634;18.310;2023-06-10T14:58:52;16.60;75.70
12386;DHT22;6257;57.634;18.310;2023-06-10T15:01:19;16.50;75.50
12386;DHT22;6257;57.634;18.310;2023-06-10T15:03:46;16.50;77.50
12386;DHT22;6257;57.634;18.310;2023-06-10T15:06:15;16.50;77.70
12386;DHT22;6257;57.634;18.310;2023-06-10T15:08:46;16.50;75.40
12386;DHT22;6257;57.634;18.310;2023-06-10T15:11:14;16.30;77.70
12386;DHT22;6257;57.634;18.310;2023-06-10T15:13:41;16.40;77.20
12386;DHT22;6257;57.634;18.310;2023-06-10T15:16:08;16.40;76.90
12386;DHT22;6257;57.634;18.310;2023-06-10T15:18:35;16.30;77.20
12386;DHT22;6257;57.634;18.310;2023-06-10T15:21:02;16.30;77.20
12386;DHT22;6257;57.634;18.310;2023-06-10T15:23:31;16.30;76.00
12386;DHT22;6257;57.634;18.310;2023-06-10T15:25:58;16.40;77.70
12386;DHT22;6257;57.634;18.310;2023-06-10T15:28:25;16.50;76.50
12386;DHT22;6257;57.634;18.310;2023-06-10T15:30:52;16.50;76.50
12386;DHT22;6257;57.634;18.310;2023-06-10T15:33:19;16.50;77.00
12386;DHT22;6257;57.634;18.310;2023-06-10T15:35:46;16.40;76.60
12386;DHT22;6257;57.634;18.310;2023-06-10T15:43:09;16.20;77.30
12386;DHT22;6257;57.634;18.310;2023-06-10T15:45:36;16.10;77.60
12386;DHT22;6257;57.634;18.310;2023-06-10T15:48:04;16.20;77.50
12386;DHT22;6257;57.634;18.310;2023-06-10T15:50:31;16.20;77.50
12386;DHT22;6257;57.634;18.310;2023-06-10T15:52:58;16.20;77.90
12386;DHT22;6257;57.634;18.310;2023-06-10T15:55:25;16.20;78.70
12386;DHT22;6257;57.634;18.310;2023-06-10T15:57:56;16.20;78.70
12386;DHT22;6257;57.634;18.310;2023-06-10T16:00:25;16.30;78.10
12386;DHT22;6257;57.634;18.310;2023-06-10T16:02:53;13.40;74.10
12386;DHT22;6257;57.634;18.310;2023-06-10T16:05:20;16.10;78.30
12386;DHT22;6257;57.634;18.310;2023-06-10T16:07:47;16.00;78.50
12386;DHT22;6257;57.634;18.310;2023-06-10T16:10:14;16.00;78.60
12386;DHT22;6257;57.634;18.310;2023-06-10T16:12:41;16.00;77.50
12386;DHT22;6257;57.634;18.310;2023-06-10T16:15:10;15.90;79.30
12386;DHT22;6257;57.634;18.310;2023-06-10T16:17:38;15.90;79.00
12386;DHT22;6257;57.634;18.310;2023-06-10T16:20:06;15.90;77.80
12386;DHT22;6257;57.634;18.310;2023-06-10T16:22:33;15.80;78.50
12386;DHT22;6257;57.634;18.310;2023-06-10T16:25:00;15.70;78.50
12386;DHT22;6257;57.634;18.310;2023-06-10T16:27:27;15.60;79.00
12386;DHT22;6257;57.634;18.310;2023-06-10T16:29:55;15.60;78.50
12386;DHT22;6257;57.634;18.310;2023-06-10T16:34:51;15.60;78.90
12386;DHT22;6257;57.634;18.310;2023-06-10T16:37:18;15.70;79.20
12386;DHT22;6257;57.634;18.310;2023-06-10T16:39:45;15.70;79.40